• Join FlightAware (Why Join?)
  • Login
  • US Flag 
10:25AM EDT


 

Airport Tracker/Info


-or-


 

Live Flight TrackerFlight Track Log ✈ N830QS ✈ 18-Aug-2013 ✈ KSFO - KSNA

Flight Track Log - Related Links

Times and Time Zones

All times are in EDT time to prevent confusion due to time zone crossing. See the N830QS flight status page for this flight to view local times or setup timezone preferences in your user account.

Time Position Orientation Groundspeed Altitude Reporting Facility
EDT Latitude Longitude Course Direction KTS MPH feet Rate Location/Type
06:41PM 37.7139 -122.4531 251° West 286 329 5,900  Level Oakland Center
06:42PM 37.6358 -122.4603 184° South 285 328 8,600 2,700 Climbing Oakland Center
06:43PM 37.5550 -122.4603 180° South 288 331 11,500 2,820 Climbing Oakland Center
06:44PM 37.4631 -122.4233 162° South 297 342 14,500 2,580 Climbing Oakland Center
06:45PM 37.3389 -122.2133 136° Southeast  Level FlightAware Approximate
06:45PM 37.4003 -122.3511 138° Southeast 306 352 16,800  Level Oakland Center
06:46PM 37.3353 -122.2794 139° Southeast 313 360 19,300 2,340 Climbing Oakland Center
06:47PM 37.2700 -122.2064 138° Southeast 315 362 21,700 2,160 Climbing Oakland Center
06:48PM 37.2031 -122.1314 138° Southeast 322 371 23,800 1,860 Climbing Oakland Center
06:49PM 37.1344 -122.0550 138° Southeast 330 380 25,600 1,560 Climbing Oakland Center
06:50PM 37.0639 -121.9767 138° Southeast 342 394 27,100 1,560 Climbing Oakland Center
06:51PM 36.9775 -121.8808 138° Southeast 347 399 28,900 1,680 Climbing Oakland Center
06:52PM 36.9031 -121.8008 139° Southeast 354 407 30,600 1,020 Climbing Oakland Center
06:53PM 36.8286 -121.7194 139° Southeast 358 412 31,000 180 Climbing Oakland Center
06:54PM 36.7503 -121.6336 139° Southeast 377 434 31,000  Level Oakland Center
06:55PM 36.6717 -121.5481 139° Southeast 377 434 31,000  Level Oakland Center
06:56PM 36.5914 -121.4611 139° Southeast 382 440 31,000  Level Oakland Center
06:57PM 36.5119 -121.3747 139° Southeast 380 437 31,000  Level Oakland Center
06:58PM 36.4158 -121.2703 139° Southeast 382 440 31,000  Level Oakland Center
06:59PM 36.3367 -121.1828 138° Southeast 383 441 31,000 -300 Level Oakland Center
07:00PM 36.2561 -121.0956 139° Southeast 384 442 30,400 -840 Descending Oakland Center
07:01PM 36.1758 -121.0097 139° Southeast 383 441 29,400 -780 Descending Oakland Center
07:02PM 36.0961 -120.9244 139° Southeast 380 437 28,900 -840 Descending Oakland Center
07:03PM 36.0172 -120.8394 139° Southeast 377 434 27,700 -1,200 Descending Oakland Center
07:04PM 35.9356 -120.7519 139° Southeast 386 444 26,500 -1,200 Descending Oakland Center
07:05PM 35.8558 -120.6650 139° Southeast 385 443 25,300 -780 Descending Oakland Center
07:06PM 35.7617 -120.5667 140° Southeast 373 429 25,000 -180 Descending Oakland Center
07:08PM 35.6842 -120.4847 139° Southeast 367 422 25,000  Level Oakland Center
07:09PM 35.6156 -120.4117 139° Southeast 367 422 25,000  Level Los Angeles Center
07:10PM 35.5378 -120.3297 139° Southeast 366 421 25,000  Level Los Angeles Center
07:11PM 35.4431 -120.2303 139° Southeast 374 430 25,000  Level Los Angeles Center
07:12PM 35.3475 -120.1297 139° Southeast 376 433 25,000  Level Los Angeles Center
07:13PM 35.2686 -120.0475 140° Southeast 380 437 25,000  Level Los Angeles Center
07:14PM 35.2044 -119.9814 140° Southeast 377 434 25,000  Level Los Angeles Center
07:15PM 35.0919 -119.8644 140° Southeast 379 436 25,000  Level Los Angeles Center
07:16PM 35.0131 -119.7797 139° Southeast 379 436 25,000  Level Los Angeles Center
07:17PM 34.9344 -119.6956 139° Southeast 376 433 25,000  Level Los Angeles Center
07:18PM 34.8564 -119.6125 139° Southeast 374 430 25,000  Level Los Angeles Center
07:19PM 34.7769 -119.5297 139° Southeast 376 433 25,000  Level Los Angeles Center
07:20PM 34.7000 -119.4472 139° Southeast 370 426 25,000  Level Los Angeles Center
07:21PM 34.6142 -119.3608 140° Southeast 374 430 25,000  Level Los Angeles Center
07:22PM 34.5353 -119.2800 140° Southeast 372 428 25,000  Level Los Angeles Center
07:23PM 34.4247 -119.1639 139° Southeast 376 433 25,000 -240 Level Los Angeles Center
07:24PM 34.3475 -119.0847 140° Southeast 368 423 24,600 -1,140 Descending Los Angeles Center
07:26PM 34.2708 -119.0025 138° Southeast 369 425 22,700 -1,920 Descending Los Angeles Center
07:27PM 34.1922 -118.9222 140° Southeast 369 425 20,700 -1,920 Descending Los Angeles Center
07:28PM 34.1139 -118.8422 140° Southeast 367 422 18,800 -2,040 Descending Los Angeles Center
07:29PM 34.0233 -118.7597 143° Southeast 360 414 16,500 -2,040 Descending Los Angeles Center
07:30PM 33.9283 -118.7250 163° South 330 380 14,600 -1,260 Descending Los Angeles Center
07:31PM 33.8428 -118.6936 163° South 321 369 14,000 -300 Descending Los Angeles Center
07:32PM 33.7553 -118.6622 163° South 336 387 14,000 -240 Level Los Angeles Center
07:33PM 33.6683 -118.6317 164° South 329 379 13,600 -840 Descending Los Angeles Center
07:34PM 33.5772 -118.5894 159° South 296 341 12,300 -1,200 Descending Los Angeles Center
07:35PM 33.5200 -118.5219 135° Southeast 305 351 11,200 -1,440 Descending Los Angeles Center
07:36PM 33.4928 -118.4347 110° East 288 331 9,400 -1,740 Descending Los Angeles Center
07:37PM 33.5025 -118.3453 83° East 293 337 7,600 -1,740 Descending Los Angeles Center
07:38PM 33.5303 -118.2583 69° East 289 333 5,800 -1,260 Descending Los Angeles Center
07:39PM 33.5608 -118.1536 71° East 283 326 5,000 -420 Descending Los Angeles Center
07:40PM 33.6089 -118.0858 50° Northeast 279 321 5,000  Level Los Angeles Center
07:41PM 33.6611 -118.0311 41° Northeast 259 298 5,000  Level Los Angeles Center
07:42PM 33.7097 -117.9797 41° Northeast 243 280 5,000  Level Los Angeles Center
07:43PM 33.7833 -117.9000 42° Northeast 243 280 5,000 -600 Level Southern California TRACON
07:44PM 33.7667 -117.8333 107° East 185 213 3,700 -1,500 Descending Southern California TRACON
07:45PM 33.7333 -117.8333 180° South 150 173 2,000 -1,680 Descending Southern California TRACON
07:46PM 33.7000 -117.8500 203° Southwest 135 155 600 -1,560 Descending Southern California TRACON
07:49PM 33.6757 -117.8682 196° South  Level Estimated